sensor_id;sensor_type;location;lat;lon;timestamp;P1;durP1;ratioP1;P2;durP2;ratioP2
13485;SDS011;6815;59.336;17.998;2023-12-14T00:01:11;3.17;;;2.20;;
13485;SDS011;6815;59.336;17.998;2023-12-14T00:03:36;3.47;;;2.20;;
13485;SDS011;6815;59.336;17.998;2023-12-14T00:06:02;6.03;;;2.40;;
13485;SDS011;6815;59.336;17.998;2023-12-14T00:08:27;2.93;;;1.80;;
13485;SDS011;6815;59.336;17.998;2023-12-14T00:10:53;2.80;;;2.00;;
13485;SDS011;6815;59.336;17.998;2023-12-14T00:13:18;3.23;;;1.83;;
13485;SDS011;6815;59.336;17.998;2023-12-14T00:15:43;4.23;;;2.33;;
13485;SDS011;6815;59.336;17.998;2023-12-14T00:18:09;3.33;;;2.50;;
13485;SDS011;6815;59.336;17.998;2023-12-14T00:20:35;2.53;;;2.17;;
13485;SDS011;6815;59.336;17.998;2023-12-14T00:23:00;2.47;;;1.80;;
13485;SDS011;6815;59.336;17.998;2023-12-14T00:25:25;3.30;;;2.20;;
13485;SDS011;6815;59.336;17.998;2023-12-14T00:27:51;3.33;;;2.20;;
13485;SDS011;6815;59.336;17.998;2023-12-14T00:30:16;2.53;;;1.90;;
13485;SDS011;6815;59.336;17.998;2023-12-14T00:32:41;1.83;;;1.63;;
13485;SDS011;6815;59.336;17.998;2023-12-14T00:35:07;2.87;;;2.30;;
13485;SDS011;6815;59.336;17.998;2023-12-14T00:37:32;2.07;;;1.87;;
13485;SDS011;6815;59.336;17.998;2023-12-14T00:39:58;2.23;;;1.60;;
13485;SDS011;6815;59.336;17.998;2023-12-14T00:42:23;2.87;;;2.10;;
13485;SDS011;6815;59.336;17.998;2023-12-14T00:44:48;2.23;;;1.57;;
13485;SDS011;6815;59.336;17.998;2023-12-14T00:47:13;2.90;;;1.90;;
13485;SDS011;6815;59.336;17.998;2023-12-14T00:49:39;2.30;;;1.80;;
13485;SDS011;6815;59.336;17.998;2023-12-14T00:52:04;2.23;;;1.53;;
13485;SDS011;6815;59.336;17.998;2023-12-14T00:54:30;2.13;;;1.63;;
13485;SDS011;6815;59.336;17.998;2023-12-14T00:56:55;2.23;;;1.93;;
13485;SDS011;6815;59.336;17.998;2023-12-14T00:59:21;2.00;;;1.60;;
13485;SDS011;6815;59.336;17.998;2023-12-14T01:01:46;3.40;;;2.10;;
13485;SDS011;6815;59.336;17.998;2023-12-14T01:04:12;2.63;;;1.93;;
13485;SDS011;6815;59.336;17.998;2023-12-14T01:06:37;3.93;;;1.80;;
13485;SDS011;6815;59.336;17.998;2023-12-14T01:09:02;3.80;;;2.23;;
13485;SDS011;6815;59.336;17.998;2023-12-14T01:11:27;2.53;;;2.07;;
13485;SDS011;6815;59.336;17.998;2023-12-14T01:13:53;2.07;;;1.70;;
13485;SDS011;6815;59.336;17.998;2023-12-14T01:16:18;2.67;;;1.70;;
13485;SDS011;6815;59.336;17.998;2023-12-14T01:18:43;2.40;;;1.70;;
13485;SDS011;6815;59.336;17.998;2023-12-14T01:21:09;1.87;;;1.60;;
13485;SDS011;6815;59.336;17.998;2023-12-14T01:23:34;3.67;;;2.00;;
13485;SDS011;6815;59.336;17.998;2023-12-14T01:25:59;3.27;;;2.07;;
13485;SDS011;6815;59.336;17.998;2023-12-14T01:28:25;3.50;;;2.00;;
13485;SDS011;6815;59.336;17.998;2023-12-14T01:30:50;2.67;;;1.90;;
13485;SDS011;6815;59.336;17.998;2023-12-14T01:33:15;2.80;;;1.70;;
13485;SDS011;6815;59.336;17.998;2023-12-14T01:35:41;2.70;;;2.00;;
13485;SDS011;6815;59.336;17.998;2023-12-14T01:38:06;2.37;;;1.77;;
13485;SDS011;6815;59.336;17.998;2023-12-14T01:40:31;3.53;;;2.20;;
13485;SDS011;6815;59.336;17.998;2023-12-14T01:43:15;3.17;;;2.20;;
13485;SDS011;6815;59.336;17.998;2023-12-14T01:45:40;3.20;;;2.00;;
13485;SDS011;6815;59.336;17.998;2023-12-14T01:48:05;3.10;;;2.07;;
13485;SDS011;6815;59.336;17.998;2023-12-14T01:50:31;2.97;;;2.00;;
13485;SDS011;6815;59.336;17.998;2023-12-14T01:52:56;2.80;;;2.00;;
13485;SDS011;6815;59.336;17.998;2023-12-14T01:55:21;3.33;;;2.17;;
13485;SDS011;6815;59.336;17.998;2023-12-14T01:57:47;3.67;;;2.30;;
13485;SDS011;6815;59.336;17.998;2023-12-14T02:00:14;2.47;;;1.93;;
13485;SDS011;6815;59.336;17.998;2023-12-14T02:02:42;2.97;;;1.90;;
13485;SDS011;6815;59.336;17.998;2023-12-14T02:05:07;3.00;;;2.20;;
13485;SDS011;6815;59.336;17.998;2023-12-14T02:07:33;3.50;;;2.03;;
13485;SDS011;6815;59.336;17.998;2023-12-14T02:09:58;3.07;;;1.93;;
13485;SDS011;6815;59.336;17.998;2023-12-14T02:12:23;2.30;;;1.80;;
13485;SDS011;6815;59.336;17.998;2023-12-14T02:14:48;3.60;;;2.00;;
13485;SDS011;6815;59.336;17.998;2023-12-14T02:17:14;2.43;;;1.63;;
13485;SDS011;6815;59.336;17.998;2023-12-14T02:19:40;2.77;;;1.57;;
13485;SDS011;6815;59.336;17.998;2023-12-14T02:22:05;2.83;;;1.80;;
13485;SDS011;6815;59.336;17.998;2023-12-14T02:24:30;2.93;;;2.03;;
13485;SDS011;6815;59.336;17.998;2023-12-14T02:26:56;2.77;;;1.83;;
13485;SDS011;6815;59.336;17.998;2023-12-14T02:29:21;4.27;;;1.90;;
13485;SDS011;6815;59.336;17.998;2023-12-14T02:31:47;3.23;;;2.10;;
13485;SDS011;6815;59.336;17.998;2023-12-14T02:34:12;3.07;;;1.90;;
13485;SDS011;6815;59.336;17.998;2023-12-14T02:36:38;2.77;;;2.10;;
13485;SDS011;6815;59.336;17.998;2023-12-14T02:39:03;3.03;;;2.17;;
13485;SDS011;6815;59.336;17.998;2023-12-14T02:41:28;3.80;;;2.03;;
13485;SDS011;6815;59.336;17.998;2023-12-14T02:43:54;3.90;;;2.20;;
13485;SDS011;6815;59.336;17.998;2023-12-14T02:46:19;3.07;;;1.87;;
13485;SDS011;6815;59.336;17.998;2023-12-14T02:48:44;2.47;;;1.93;;
13485;SDS011;6815;59.336;17.998;2023-12-14T02:51:13;2.40;;;1.90;;
13485;SDS011;6815;59.336;17.998;2023-12-14T02:53:39;3.23;;;1.90;;
13485;SDS011;6815;59.336;17.998;2023-12-14T02:56:05;2.00;;;1.60;;
13485;SDS011;6815;59.336;17.998;2023-12-14T02:58:30;3.20;;;2.30;;
13485;SDS011;6815;59.336;17.998;2023-12-14T03:00:55;4.27;;;2.13;;
13485;SDS011;6815;59.336;17.998;2023-12-14T03:03:21;3.23;;;2.23;;
13485;SDS011;6815;59.336;17.998;2023-12-14T03:05:46;2.30;;;2.00;;
13485;SDS011;6815;59.336;17.998;2023-12-14T03:08:11;3.60;;;2.00;;
13485;SDS011;6815;59.336;17.998;2023-12-14T03:10:37;3.27;;;2.20;;
13485;SDS011;6815;59.336;17.998;2023-12-14T03:13:02;2.87;;;2.10;;
13485;SDS011;6815;59.336;17.998;2023-12-14T03:15:27;2.80;;;1.90;;
13485;SDS011;6815;59.336;17.998;2023-12-14T03:17:53;2.60;;;1.87;;
13485;SDS011;6815;59.336;17.998;2023-12-14T03:20:18;2.77;;;1.87;;
13485;SDS011;6815;59.336;17.998;2023-12-14T03:22:43;2.97;;;1.97;;
13485;SDS011;6815;59.336;17.998;2023-12-14T03:25:09;3.50;;;1.90;;
13485;SDS011;6815;59.336;17.998;2023-12-14T03:27:34;3.43;;;2.23;;
13485;SDS011;6815;59.336;17.998;2023-12-14T03:30:00;2.50;;;1.77;;
13485;SDS011;6815;59.336;17.998;2023-12-14T03:32:25;2.57;;;1.90;;
13485;SDS011;6815;59.336;17.998;2023-12-14T03:34:51;2.57;;;1.90;;
13485;SDS011;6815;59.336;17.998;2023-12-14T03:37:16;2.73;;;1.93;;
13485;SDS011;6815;59.336;17.998;2023-12-14T03:39:41;3.33;;;2.10;;
13485;SDS011;6815;59.336;17.998;2023-12-14T03:42:07;3.03;;;1.97;;
13485;SDS011;6815;59.336;17.998;2023-12-14T03:44:32;2.80;;;1.97;;
13485;SDS011;6815;59.336;17.998;2023-12-14T03:46:57;4.17;;;2.40;;
13485;SDS011;6815;59.336;17.998;2023-12-14T03:49:25;2.87;;;2.07;;
13485;SDS011;6815;59.336;17.998;2023-12-14T03:51:50;2.57;;;1.70;;
13485;SDS011;6815;59.336;17.998;2023-12-14T03:54:15;2.47;;;1.83;;
13485;SDS011;6815;59.336;17.998;2023-12-14T03:56:41;3.50;;;2.30;;
13485;SDS011;6815;59.336;17.998;2023-12-14T03:59:06;2.30;;;1.73;;
13485;SDS011;6815;59.336;17.998;2023-12-14T04:01:32;2.97;;;2.00;;
13485;SDS011;6815;59.336;17.998;2023-12-14T04:03:58;3.60;;;2.17;;
13485;SDS011;6815;59.336;17.998;2023-12-14T04:06:23;3.00;;;2.17;;
13485;SDS011;6815;59.336;17.998;2023-12-14T04:08:49;3.33;;;2.00;;
13485;SDS011;6815;59.336;17.998;2023-12-14T04:11:14;2.87;;;2.20;;
13485;SDS011;6815;59.336;17.998;2023-12-14T04:13:40;2.73;;;2.13;;
13485;SDS011;6815;59.336;17.998;2023-12-14T04:16:05;2.30;;;2.07;;
13485;SDS011;6815;59.336;17.998;2023-12-14T04:18:30;3.50;;;2.30;;
13485;SDS011;6815;59.336;17.998;2023-12-14T04:20:56;3.10;;;2.20;;
13485;SDS011;6815;59.336;17.998;2023-12-14T04:23:21;3.30;;;2.40;;
13485;SDS011;6815;59.336;17.998;2023-12-14T04:25:46;3.47;;;2.20;;
13485;SDS011;6815;59.336;17.998;2023-12-14T04:28:12;2.40;;;2.10;;
13485;SDS011;6815;59.336;17.998;2023-12-14T04:30:37;3.00;;;2.03;;
13485;SDS011;6815;59.336;17.998;2023-12-14T04:33:02;3.20;;;2.10;;
13485;SDS011;6815;59.336;17.998;2023-12-14T04:35:28;2.97;;;2.17;;
13485;SDS011;6815;59.336;17.998;2023-12-14T04:37:53;3.67;;;2.30;;
13485;SDS011;6815;59.336;17.998;2023-12-14T04:40:18;3.93;;;2.50;;
13485;SDS011;6815;59.336;17.998;2023-12-14T04:42:44;3.80;;;2.30;;
13485;SDS011;6815;59.336;17.998;2023-12-14T04:45:09;3.03;;;2.30;;
13485;SDS011;6815;59.336;17.998;2023-12-14T04:47:35;3.27;;;2.10;;
13485;SDS011;6815;59.336;17.998;2023-12-14T04:50:01;3.47;;;2.47;;
13485;SDS011;6815;59.336;17.998;2023-12-14T04:52:27;3.50;;;2.50;;
13485;SDS011;6815;59.336;17.998;2023-12-14T04:54:52;3.00;;;2.17;;
13485;SDS011;6815;59.336;17.998;2023-12-14T04:57:17;2.90;;;2.23;;
13485;SDS011;6815;59.336;17.998;2023-12-14T04:59:43;3.47;;;2.50;;
13485;SDS011;6815;59.336;17.998;2023-12-14T05:02:08;3.87;;;2.13;;
13485;SDS011;6815;59.336;17.998;2023-12-14T05:04:33;2.83;;;2.03;;
13485;SDS011;6815;59.336;17.998;2023-12-14T05:06:59;2.43;;;1.87;;
13485;SDS011;6815;59.336;17.998;2023-12-14T05:09:24;2.87;;;2.10;;
13485;SDS011;6815;59.336;17.998;2023-12-14T05:11:49;3.10;;;2.33;;
13485;SDS011;6815;59.336;17.998;2023-12-14T05:14:15;2.93;;;2.10;;
13485;SDS011;6815;59.336;17.998;2023-12-14T05:16:40;2.10;;;1.83;;
13485;SDS011;6815;59.336;17.998;2023-12-14T05:19:05;2.60;;;1.90;;
13485;SDS011;6815;59.336;17.998;2023-12-14T05:21:31;3.17;;;2.00;;
13485;SDS011;6815;59.336;17.998;2023-12-14T05:23:56;3.17;;;2.03;;
13485;SDS011;6815;59.336;17.998;2023-12-14T05:26:21;3.50;;;1.90;;
13485;SDS011;6815;59.336;17.998;2023-12-14T05:28:47;2.73;;;2.00;;
13485;SDS011;6815;59.336;17.998;2023-12-14T05:31:12;3.27;;;2.30;;
13485;SDS011;6815;59.336;17.998;2023-12-14T05:33:38;3.37;;;2.30;;
13485;SDS011;6815;59.336;17.998;2023-12-14T05:36:03;3.63;;;2.50;;
13485;SDS011;6815;59.336;17.998;2023-12-14T05:38:33;3.30;;;2.30;;
13485;SDS011;6815;59.336;17.998;2023-12-14T05:40:58;3.77;;;2.30;;
13485;SDS011;6815;59.336;17.998;2023-12-14T05:43:24;2.63;;;2.20;;
13485;SDS011;6815;59.336;17.998;2023-12-14T05:45:49;3.40;;;2.23;;
13485;SDS011;6815;59.336;17.998;2023-12-14T05:48:14;3.43;;;2.13;;
13485;SDS011;6815;59.336;17.998;2023-12-14T05:50:40;4.03;;;2.27;;
13485;SDS011;6815;59.336;17.998;2023-12-14T05:53:05;3.80;;;2.33;;
13485;SDS011;6815;59.336;17.998;2023-12-14T05:55:30;3.13;;;2.00;;
13485;SDS011;6815;59.336;17.998;2023-12-14T05:57:56;2.73;;;2.10;;
13485;SDS011;6815;59.336;17.998;2023-12-14T06:00:21;4.53;;;2.20;;
13485;SDS011;6815;59.336;17.998;2023-12-14T06:02:47;3.17;;;2.23;;
13485;SDS011;6815;59.336;17.998;2023-12-14T06:05:12;3.40;;;2.40;;
13485;SDS011;6815;59.336;17.998;2023-12-14T06:07:37;3.13;;;2.20;;
13485;SDS011;6815;59.336;17.998;2023-12-14T06:10:03;2.80;;;2.20;;
13485;SDS011;6815;59.336;17.998;2023-12-14T06:12:28;2.90;;;2.17;;
13485;SDS011;6815;59.336;17.998;2023-12-14T06:14:54;2.90;;;2.10;;
13485;SDS011;6815;59.336;17.998;2023-12-14T06:17:19;3.80;;;2.00;;
13485;SDS011;6815;59.336;17.998;2023-12-14T06:19:44;3.70;;;2.23;;
13485;SDS011;6815;59.336;17.998;2023-12-14T06:22:10;3.30;;;2.17;;
13485;SDS011;6815;59.336;17.998;2023-12-14T06:24:35;3.30;;;2.23;;
13485;SDS011;6815;59.336;17.998;2023-12-14T06:27:00;3.07;;;2.10;;
13485;SDS011;6815;59.336;17.998;2023-12-14T06:29:25;2.47;;;2.03;;
13485;SDS011;6815;59.336;17.998;2023-12-14T06:31:51;4.00;;;2.30;;
13485;SDS011;6815;59.336;17.998;2023-12-14T06:34:17;2.90;;;1.83;;
13485;SDS011;6815;59.336;17.998;2023-12-14T06:36:43;3.03;;;2.30;;
13485;SDS011;6815;59.336;17.998;2023-12-14T06:39:09;4.90;;;3.20;;
13485;SDS011;6815;59.336;17.998;2023-12-14T06:41:34;2.83;;;2.27;;
13485;SDS011;6815;59.336;17.998;2023-12-14T06:44:00;3.07;;;2.23;;
13485;SDS011;6815;59.336;17.998;2023-12-14T06:46:25;4.10;;;2.10;;
13485;SDS011;6815;59.336;17.998;2023-12-14T06:48:50;3.10;;;2.27;;
13485;SDS011;6815;59.336;17.998;2023-12-14T06:51:16;3.87;;;2.70;;
13485;SDS011;6815;59.336;17.998;2023-12-14T06:53:41;3.57;;;2.30;;
13485;SDS011;6815;59.336;17.998;2023-12-14T06:56:08;3.33;;;2.33;;
13485;SDS011;6815;59.336;17.998;2023-12-14T06:58:37;2.70;;;2.10;;
13485;SDS011;6815;59.336;17.998;2023-12-14T07:01:02;3.47;;;2.40;;
13485;SDS011;6815;59.336;17.998;2023-12-14T07:03:27;3.03;;;2.00;;
13485;SDS011;6815;59.336;17.998;2023-12-14T07:05:53;3.50;;;2.20;;
13485;SDS011;6815;59.336;17.998;2023-12-14T07:08:18;2.97;;;2.20;;
13485;SDS011;6815;59.336;17.998;2023-12-14T07:10:43;4.40;;;2.00;;
13485;SDS011;6815;59.336;17.998;2023-12-14T07:13:09;3.90;;;2.27;;
13485;SDS011;6815;59.336;17.998;2023-12-14T07:15:34;3.10;;;1.90;;
13485;SDS011;6815;59.336;17.998;2023-12-14T07:17:59;3.20;;;2.37;;
13485;SDS011;6815;59.336;17.998;2023-12-14T07:20:25;3.77;;;2.30;;
13485;SDS011;6815;59.336;17.998;2023-12-14T07:22:50;5.53;;;2.20;;
13485;SDS011;6815;59.336;17.998;2023-12-14T07:25:15;3.53;;;2.13;;
13485;SDS011;6815;59.336;17.998;2023-12-14T07:27:41;3.03;;;2.20;;
13485;SDS011;6815;59.336;17.998;2023-12-14T07:30:07;4.70;;;2.23;;
13485;SDS011;6815;59.336;17.998;2023-12-14T07:32:34;4.20;;;2.50;;
13485;SDS011;6815;59.336;17.998;2023-12-14T07:34:59;4.23;;;2.90;;
13485;SDS011;6815;59.336;17.998;2023-12-14T07:37:25;4.30;;;2.40;;
13485;SDS011;6815;59.336;17.998;2023-12-14T07:39:50;4.27;;;2.90;;
13485;SDS011;6815;59.336;17.998;2023-12-14T07:42:16;3.20;;;2.33;;
13485;SDS011;6815;59.336;17.998;2023-12-14T07:44:44;3.73;;;2.70;;
13485;SDS011;6815;59.336;17.998;2023-12-14T07:47:10;4.20;;;2.30;;
13485;SDS011;6815;59.336;17.998;2023-12-14T07:49:35;3.97;;;2.80;;
13485;SDS011;6815;59.336;17.998;2023-12-14T07:52:00;3.97;;;2.77;;
13485;SDS011;6815;59.336;17.998;2023-12-14T07:54:26;5.53;;;2.60;;
13485;SDS011;6815;59.336;17.998;2023-12-14T07:56:52;4.80;;;3.27;;
13485;SDS011;6815;59.336;17.998;2023-12-14T07:59:17;6.30;;;3.43;;
13485;SDS011;6815;59.336;17.998;2023-12-14T08:01:42;8.17;;;3.23;;
13485;SDS011;6815;59.336;17.998;2023-12-14T08:04:08;4.53;;;3.07;;
13485;SDS011;6815;59.336;17.998;2023-12-14T08:06:35;6.17;;;3.10;;
13485;SDS011;6815;59.336;17.998;2023-12-14T08:09:00;3.93;;;2.60;;
13485;SDS011;6815;59.336;17.998;2023-12-14T08:11:26;4.07;;;2.43;;
13485;SDS011;6815;59.336;17.998;2023-12-14T08:13:52;4.00;;;2.60;;
13485;SDS011;6815;59.336;17.998;2023-12-14T08:16:17;3.20;;;2.40;;
13485;SDS011;6815;59.336;17.998;2023-12-14T08:18:43;4.83;;;2.63;;
13485;SDS011;6815;59.336;17.998;2023-12-14T08:21:11;5.13;;;3.07;;
13485;SDS011;6815;59.336;17.998;2023-12-14T08:23:36;5.90;;;3.80;;
13485;SDS011;6815;59.336;17.998;2023-12-14T08:26:01;5.10;;;3.17;;
13485;SDS011;6815;59.336;17.998;2023-12-14T08:28:27;7.43;;;3.17;;
13485;SDS011;6815;59.336;17.998;2023-12-14T08:30:53;3.60;;;2.47;;
13485;SDS011;6815;59.336;17.998;2023-12-14T08:33:18;5.50;;;2.83;;
13485;SDS011;6815;59.336;17.998;2023-12-14T08:35:44;5.07;;;3.10;;
13485;SDS011;6815;59.336;17.998;2023-12-14T08:38:09;4.97;;;3.00;;
13485;SDS011;6815;59.336;17.998;2023-12-14T08:40:34;3.70;;;2.40;;
13485;SDS011;6815;59.336;17.998;2023-12-14T08:43:00;4.73;;;3.07;;
13485;SDS011;6815;59.336;17.998;2023-12-14T08:45:25;5.67;;;3.13;;
13485;SDS011;6815;59.336;17.998;2023-12-14T08:47:51;4.90;;;3.43;;
13485;SDS011;6815;59.336;17.998;2023-12-14T08:50:16;6.00;;;3.33;;
13485;SDS011;6815;59.336;17.998;2023-12-14T08:52:41;5.30;;;3.30;;
13485;SDS011;6815;59.336;17.998;2023-12-14T08:55:07;3.90;;;2.53;;
13485;SDS011;6815;59.336;17.998;2023-12-14T08:57:33;4.23;;;2.43;;
13485;SDS011;6815;59.336;17.998;2023-12-14T08:59:58;4.53;;;3.10;;
13485;SDS011;6815;59.336;17.998;2023-12-14T09:02:23;4.33;;;2.70;;
13485;SDS011;6815;59.336;17.998;2023-12-14T09:04:49;5.10;;;2.63;;
13485;SDS011;6815;59.336;17.998;2023-12-14T09:07:14;4.23;;;2.93;;
13485;SDS011;6815;59.336;17.998;2023-12-14T09:09:39;4.57;;;2.80;;
13485;SDS011;6815;59.336;17.998;2023-12-14T09:12:05;3.77;;;2.80;;
13485;SDS011;6815;59.336;17.998;2023-12-14T09:14:30;4.83;;;3.00;;
13485;SDS011;6815;59.336;17.998;2023-12-14T09:16:56;6.93;;;3.70;;
13485;SDS011;6815;59.336;17.998;2023-12-14T09:19:21;5.93;;;3.60;;
13485;SDS011;6815;59.336;17.998;2023-12-14T09:21:47;5.43;;;3.50;;
13485;SDS011;6815;59.336;17.998;2023-12-14T09:24:12;4.97;;;3.50;;
13485;SDS011;6815;59.336;17.998;2023-12-14T09:26:37;6.37;;;3.60;;
13485;SDS011;6815;59.336;17.998;2023-12-14T09:29:03;4.80;;;2.93;;
13485;SDS011;6815;59.336;17.998;2023-12-14T09:31:28;4.73;;;2.93;;
13485;SDS011;6815;59.336;17.998;2023-12-14T09:33:53;5.33;;;3.23;;
13485;SDS011;6815;59.336;17.998;2023-12-14T09:36:19;6.00;;;3.47;;
13485;SDS011;6815;59.336;17.998;2023-12-14T09:38:44;5.33;;;3.37;;
13485;SDS011;6815;59.336;17.998;2023-12-14T09:41:10;5.80;;;4.00;;
13485;SDS011;6815;59.336;17.998;2023-12-14T09:43:36;5.63;;;3.57;;
13485;SDS011;6815;59.336;17.998;2023-12-14T09:46:01;5.60;;;3.13;;
13485;SDS011;6815;59.336;17.998;2023-12-14T09:48:26;7.00;;;3.70;;
13485;SDS011;6815;59.336;17.998;2023-12-14T09:50:53;6.10;;;3.53;;
13485;SDS011;6815;59.336;17.998;2023-12-14T09:53:18;6.33;;;3.37;;
13485;SDS011;6815;59.336;17.998;2023-12-14T09:55:44;5.53;;;3.13;;
13485;SDS011;6815;59.336;17.998;2023-12-14T09:58:09;6.27;;;3.30;;
13485;SDS011;6815;59.336;17.998;2023-12-14T10:00:39;5.00;;;3.10;;
13485;SDS011;6815;59.336;17.998;2023-12-14T10:05:43;5.70;;;3.50;;
13485;SDS011;6815;59.336;17.998;2023-12-14T10:08:08;6.97;;;3.20;;
13485;SDS011;6815;59.336;17.998;2023-12-14T10:10:34;4.23;;;3.07;;
13485;SDS011;6815;59.336;17.998;2023-12-14T10:12:59;3.83;;;2.83;;
13485;SDS011;6815;59.336;17.998;2023-12-14T10:15:25;8.70;;;3.53;;
13485;SDS011;6815;59.336;17.998;2023-12-14T10:17:51;3.87;;;2.60;;
13485;SDS011;6815;59.336;17.998;2023-12-14T10:20:22;4.90;;;3.03;;
13485;SDS011;6815;59.336;17.998;2023-12-14T10:22:48;5.43;;;2.90;;
13485;SDS011;6815;59.336;17.998;2023-12-14T10:25:14;4.60;;;2.97;;
13485;SDS011;6815;59.336;17.998;2023-12-14T10:27:39;4.00;;;2.77;;
13485;SDS011;6815;59.336;17.998;2023-12-14T10:30:06;4.77;;;3.17;;
13485;SDS011;6815;59.336;17.998;2023-12-14T10:32:31;5.20;;;3.17;;
13485;SDS011;6815;59.336;17.998;2023-12-14T10:34:57;6.03;;;3.20;;
13485;SDS011;6815;59.336;17.998;2023-12-14T10:37:23;6.17;;;3.20;;
13485;SDS011;6815;59.336;17.998;2023-12-14T10:39:50;5.03;;;3.23;;
13485;SDS011;6815;59.336;17.998;2023-12-14T10:42:18;6.73;;;3.70;;
13485;SDS011;6815;59.336;17.998;2023-12-14T10:44:45;8.07;;;4.57;;
13485;SDS011;6815;59.336;17.998;2023-12-14T10:47:13;6.30;;;3.30;;
13485;SDS011;6815;59.336;17.998;2023-12-14T10:49:40;4.50;;;3.57;;
13485;SDS011;6815;59.336;17.998;2023-12-14T10:52:07;3.50;;;2.93;;
13485;SDS011;6815;59.336;17.998;2023-12-14T10:54:32;6.23;;;3.43;;
13485;SDS011;6815;59.336;17.998;2023-12-14T10:57:01;8.27;;;3.80;;
13485;SDS011;6815;59.336;17.998;2023-12-14T10:59:27;5.73;;;3.80;;
13485;SDS011;6815;59.336;17.998;2023-12-14T11:01:52;7.03;;;3.63;;
13485;SDS011;6815;59.336;17.998;2023-12-14T11:04:18;5.10;;;3.43;;
13485;SDS011;6815;59.336;17.998;2023-12-14T11:06:45;5.20;;;3.20;;
13485;SDS011;6815;59.336;17.998;2023-12-14T11:09:13;5.50;;;3.10;;
13485;SDS011;6815;59.336;17.998;2023-12-14T11:11:40;4.50;;;2.60;;
13485;SDS011;6815;59.336;17.998;2023-12-14T11:14:07;4.30;;;3.03;;
13485;SDS011;6815;59.336;17.998;2023-12-14T11:16:33;4.03;;;2.93;;
13485;SDS011;6815;59.336;17.998;2023-12-14T11:21:43;8.47;;;3.37;;
13485;SDS011;6815;59.336;17.998;2023-12-14T11:24:08;4.57;;;2.73;;
13485;SDS011;6815;59.336;17.998;2023-12-14T11:26:33;5.90;;;3.33;;
13485;SDS011;6815;59.336;17.998;2023-12-14T11:28:59;4.90;;;3.03;;
13485;SDS011;6815;59.336;17.998;2023-12-14T11:31:24;4.40;;;3.10;;
13485;SDS011;6815;59.336;17.998;2023-12-14T11:33:49;4.37;;;2.93;;
13485;SDS011;6815;59.336;17.998;2023-12-14T11:36:14;5.63;;;3.20;;
13485;SDS011;6815;59.336;17.998;2023-12-14T11:38:40;6.73;;;3.43;;
13485;SDS011;6815;59.336;17.998;2023-12-14T11:41:06;5.53;;;3.60;;
13485;SDS011;6815;59.336;17.998;2023-12-14T11:43:41;6.67;;;3.40;;
13485;SDS011;6815;59.336;17.998;2023-12-14T11:46:06;7.57;;;3.00;;
13485;SDS011;6815;59.336;17.998;2023-12-14T11:48:31;5.27;;;3.47;;
13485;SDS011;6815;59.336;17.998;2023-12-14T11:50:57;6.23;;;3.30;;
13485;SDS011;6815;59.336;17.998;2023-12-14T11:53:22;4.53;;;3.00;;
13485;SDS011;6815;59.336;17.998;2023-12-14T11:55:48;5.73;;;3.00;;
13485;SDS011;6815;59.336;17.998;2023-12-14T11:58:13;4.93;;;3.30;;
13485;SDS011;6815;59.336;17.998;2023-12-14T12:00:40;5.53;;;3.10;;
13485;SDS011;6815;59.336;17.998;2023-12-14T12:05:41;4.77;;;3.00;;
13485;SDS011;6815;59.336;17.998;2023-12-14T12:08:06;4.17;;;2.60;;
13485;SDS011;6815;59.336;17.998;2023-12-14T12:10:32;5.43;;;2.57;;
13485;SDS011;6815;59.336;17.998;2023-12-14T12:12:58;5.03;;;3.10;;
13485;SDS011;6815;59.336;17.998;2023-12-14T12:15:24;4.17;;;2.87;;
13485;SDS011;6815;59.336;17.998;2023-12-14T12:17:49;3.83;;;2.43;;
13485;SDS011;6815;59.336;17.998;2023-12-14T12:20:14;5.47;;;3.00;;
13485;SDS011;6815;59.336;17.998;2023-12-14T12:22:40;3.87;;;2.60;;
13485;SDS011;6815;59.336;17.998;2023-12-14T12:25:05;3.77;;;2.30;;
13485;SDS011;6815;59.336;17.998;2023-12-14T12:27:30;3.60;;;2.37;;
13485;SDS011;6815;59.336;17.998;2023-12-14T12:29:56;4.23;;;2.73;;
13485;SDS011;6815;59.336;17.998;2023-12-14T12:32:21;4.23;;;2.37;;
13485;SDS011;6815;59.336;17.998;2023-12-14T12:34:46;3.23;;;2.40;;
13485;SDS011;6815;59.336;17.998;2023-12-14T12:37:11;5.47;;;2.90;;
13485;SDS011;6815;59.336;17.998;2023-12-14T12:39:37;3.20;;;2.27;;
13485;SDS011;6815;59.336;17.998;2023-12-14T12:42:04;5.13;;;2.73;;
13485;SDS011;6815;59.336;17.998;2023-12-14T12:44:29;3.50;;;2.33;;
13485;SDS011;6815;59.336;17.998;2023-12-14T12:46:54;3.80;;;2.67;;
13485;SDS011;6815;59.336;17.998;2023-12-14T12:49:23;3.77;;;2.60;;
13485;SDS011;6815;59.336;17.998;2023-12-14T12:51:49;3.10;;;2.53;;
13485;SDS011;6815;59.336;17.998;2023-12-14T12:54:14;3.50;;;2.30;;
13485;SDS011;6815;59.336;17.998;2023-12-14T12:56:39;3.53;;;2.33;;
13485;SDS011;6815;59.336;17.998;2023-12-14T12:59:05;3.50;;;2.37;;
13485;SDS011;6815;59.336;17.998;2023-12-14T13:01:30;4.23;;;2.47;;
13485;SDS011;6815;59.336;17.998;2023-12-14T13:03:55;4.37;;;2.43;;
13485;SDS011;6815;59.336;17.998;2023-12-14T13:06:25;3.30;;;2.50;;
13485;SDS011;6815;59.336;17.998;2023-12-14T13:08:50;4.50;;;2.10;;
13485;SDS011;6815;59.336;17.998;2023-12-14T13:11:16;4.53;;;2.43;;
13485;SDS011;6815;59.336;17.998;2023-12-14T13:13:41;3.80;;;2.33;;
13485;SDS011;6815;59.336;17.998;2023-12-14T13:16:08;4.17;;;2.43;;
13485;SDS011;6815;59.336;17.998;2023-12-14T13:18:34;3.40;;;2.13;;
13485;SDS011;6815;59.336;17.998;2023-12-14T13:20:59;3.43;;;2.43;;
13485;SDS011;6815;59.336;17.998;2023-12-14T13:23:24;3.03;;;2.37;;
13485;SDS011;6815;59.336;17.998;2023-12-14T13:25:49;7.30;;;2.37;;
13485;SDS011;6815;59.336;17.998;2023-12-14T13:28:15;4.83;;;2.20;;
13485;SDS011;6815;59.336;17.998;2023-12-14T13:30:41;2.57;;;2.00;;
13485;SDS011;6815;59.336;17.998;2023-12-14T13:33:06;2.80;;;1.90;;
13485;SDS011;6815;59.336;17.998;2023-12-14T13:35:34;2.43;;;1.90;;
13485;SDS011;6815;59.336;17.998;2023-12-14T13:37:59;4.67;;;2.53;;
13485;SDS011;6815;59.336;17.998;2023-12-14T13:40:25;3.83;;;2.33;;
13485;SDS011;6815;59.336;17.998;2023-12-14T13:42:50;3.43;;;2.33;;
13485;SDS011;6815;59.336;17.998;2023-12-14T13:45:16;3.60;;;2.50;;
13485;SDS011;6815;59.336;17.998;2023-12-14T13:47:42;3.00;;;2.33;;
13485;SDS011;6815;59.336;17.998;2023-12-14T13:50:07;4.17;;;2.37;;
13485;SDS011;6815;59.336;17.998;2023-12-14T13:52:33;3.87;;;2.07;;
13485;SDS011;6815;59.336;17.998;2023-12-14T13:54:59;4.73;;;2.70;;
13485;SDS011;6815;59.336;17.998;2023-12-14T13:57:24;3.83;;;2.37;;
13485;SDS011;6815;59.336;17.998;2023-12-14T13:59:49;3.30;;;2.53;;
13485;SDS011;6815;59.336;17.998;2023-12-14T14:02:15;3.00;;;2.23;;
13485;SDS011;6815;59.336;17.998;2023-12-14T14:04:40;4.20;;;2.27;;
13485;SDS011;6815;59.336;17.998;2023-12-14T14:07:05;3.13;;;2.37;;
13485;SDS011;6815;59.336;17.998;2023-12-14T14:09:31;2.67;;;2.23;;
13485;SDS011;6815;59.336;17.998;2023-12-14T14:11:58;4.03;;;2.57;;
13485;SDS011;6815;59.336;17.998;2023-12-14T14:14:23;3.50;;;2.00;;
13485;SDS011;6815;59.336;17.998;2023-12-14T14:16:49;2.87;;;2.10;;
13485;SDS011;6815;59.336;17.998;2023-12-14T14:19:14;2.93;;;2.07;;
13485;SDS011;6815;59.336;17.998;2023-12-14T14:21:40;2.87;;;2.33;;
13485;SDS011;6815;59.336;17.998;2023-12-14T14:24:05;3.03;;;2.17;;
13485;SDS011;6815;59.336;17.998;2023-12-14T14:26:31;3.43;;;2.30;;
13485;SDS011;6815;59.336;17.998;2023-12-14T14:28:56;4.20;;;2.57;;
13485;SDS011;6815;59.336;17.998;2023-12-14T14:31:25;4.10;;;2.13;;
13485;SDS011;6815;59.336;17.998;2023-12-14T14:33:52;2.90;;;2.10;;
13485;SDS011;6815;59.336;17.998;2023-12-14T14:36:17;2.53;;;1.60;;
13485;SDS011;6815;59.336;17.998;2023-12-14T14:38:44;2.63;;;1.90;;
13485;SDS011;6815;59.336;17.998;2023-12-14T14:41:09;2.87;;;2.00;;
13485;SDS011;6815;59.336;17.998;2023-12-14T14:43:35;2.50;;;1.90;;
13485;SDS011;6815;59.336;17.998;2023-12-14T14:46:01;2.73;;;2.10;;